Time;durP1;ratioP1;P1;durP2;ratioP2;P2;SDS_P1;SDS_P2;PMS_P1;PMS_P2;Temp;Humidity;BMP_temperature;BMP_pressure;BME280_temperature;BME280_humidity;BME280_pressure;Samples;Min_cycle;Max_cycle;Signal;HPM_P1;HPM_P2
2023/05/10 00:00:14;;;;;;;76.35;71.07;;;;;;;;;;5010051;28;20501;-62
2023/05/10 00:02:40;;;;;;;80.88;74.72;;;;;;;;;;5045344;28;20106;-63
2023/05/10 00:05:06;;;;;;;85.82;79.47;;;;;;;;;;5045414;28;20078;-63
2023/05/10 00:07:31;;;;;;;94.10;87.30;;;;;;;;;;5026264;28;20098;-64
2023/05/10 00:09:56;;;;;;;96.95;90.20;;;;;;;;;;5045642;28;20479;-60
2023/05/10 00:12:21;;;;;;;94.72;87.68;;;;;;;;;;5045273;28;20062;-62
2023/05/10 00:14:47;;;;;;;93.32;86.45;;;;;;;;;;5045075;28;20543;-62
2023/05/10 00:17:12;;;;;;;92.88;86.10;;;;;;;;;;5045352;28;20032;-62
2023/05/10 00:19:37;;;;;;;97.40;89.93;;;;;;;;;;5045103;28;20025;-64
2023/05/10 00:22:02;;;;;;;78.93;73.10;;;;;;;;;;5045544;28;20697;-61
2023/05/10 00:24:28;;;;;;;93.60;86.50;;;;;;;;;;5045155;28;20033;-65
2023/05/10 00:26:53;;;;;;;100.45;93.28;;;;;;;;;;5045128;28;20247;-62
2023/05/10 00:29:19;;;;;;;91.45;84.38;;;;;;;;;;5044823;28;20035;-64
2023/05/10 00:31:44;;;;;;;119.47;110.22;;;;;;;;;;5027455;28;20044;-64
2023/05/10 00:34:10;;;;;;;97.35;89.38;;;;;;;;;;5044833;28;20501;-62
2023/05/10 00:36:35;;;;;;;113.70;104.95;;;;;;;;;;5044598;28;20032;-64
2023/05/10 00:39:00;;;;;;;109.22;100.68;;;;;;;;;;5045148;28;20245;-61
2023/05/10 00:41:25;;;;;;;111.85;103.05;;;;;;;;;;5044495;28;20101;-63
2023/05/10 00:43:51;;;;;;;97.55;89.78;;;;;;;;;;5044753;28;20025;-64
2023/05/10 00:46:16;;;;;;;110.47;101.82;;;;;;;;;;5045150;28;20036;-62
2023/05/10 00:48:43;;;;;;;115.10;105.95;;;;;;;;;;5044428;28;20060;-61
2023/05/10 00:51:08;;;;;;;124.35;113.90;;;;;;;;;;5044573;28;20477;-62
2023/05/10 00:53:34;;;;;;;109.07;100.30;;;;;;;;;;5044624;28;20063;-63
2023/05/10 00:55:59;;;;;;;117.63;108.20;;;;;;;;;;5044644;28;20028;-64
2023/05/10 00:58:28;;;;;;;112.35;103.03;;;;;;;;;;5044646;28;20036;-65
2023/05/10 01:00:54;;;;;;;119.28;109.95;;;;;;;;;;5026397;28;20045;-63
2023/05/10 01:03:19;;;;;;;124.32;113.93;;;;;;;;;;5044385;28;20048;-63
2023/05/10 01:05:45;;;;;;;130.13;118.72;;;;;;;;;;5044338;28;20021;-63
2023/05/10 01:08:10;;;;;;;124.32;113.60;;;;;;;;;;5044369;28;20029;-63
2023/05/10 01:10:35;;;;;;;119.53;109.65;;;;;;;;;;5044993;28;20157;-62
2023/05/10 01:13:00;;;;;;;129.45;118.30;;;;;;;;;;5044392;28;20025;-63
2023/05/10 01:15:26;;;;;;;129.23;118.00;;;;;;;;;;5044589;28;20037;-62
2023/05/10 01:17:52;;;;;;;115.25;105.68;;;;;;;;;;5044138;28;20032;-63
2023/05/10 01:20:17;;;;;;;137.20;125.28;;;;;;;;;;5044383;28;20100;-62
2023/05/10 01:22:58;;;;;;;144.65;131.30;;;;;;;;;;5044394;28;20057;-64
2023/05/10 01:25:41;;;;;;;124.07;112.93;;;;;;;;;;5044494;28;20021;-61
2023/05/10 01:28:25;;;;;;;129.18;116.53;;;;;;;;;;5044271;28;20036;-63
2023/05/10 01:31:09;;;;;;;125.70;114.72;;;;;;;;;;5044461;28;20383;-64
2023/05/10 01:33:40;;;;;;;128.95;117.32;;;;;;;;;;5048672;28;20464;-64
2023/05/10 01:36:29;;;;;;;110.22;100.65;;;;;;;;;;5047992;28;20027;-64
2023/05/10 01:39:01;;;;;;;130.60;118.78;;;;;;;;;;4947185;28;20066;-64
2023/05/10 01:42:03;;;;;;;120.72;109.78;;;;;;;;;;4947156;28;20118;-64
2023/05/10 01:44:35;;;;;;;115.30;105.65;;;;;;;;;;4927833;29;20412;-61
2023/05/10 01:47:30;;;;;;;120.60;109.88;;;;;;;;;;4932557;28;20051;-64
2023/05/10 01:49:56;;;;;;;125.30;114.15;;;;;;;;;;4928033;29;20032;-61
2023/05/10 01:52:31;;;;;;;129.30;117.55;;;;;;;;;;4896035;29;20040;-61
2023/05/10 01:55:05;;;;;;;120.35;109.80;;;;;;;;;;4928274;29;20079;-60
2023/05/10 01:57:34;;;;;;;127.07;115.85;;;;;;;;;;4927938;29;20028;-62
2023/05/10 02:00:02;;;;;;;116.63;106.70;;;;;;;;;;4927708;29;20039;-63
2023/05/10 02:02:29;;;;;;;113.97;104.68;;;;;;;;;;4911980;29;20134;-63
2023/05/10 02:04:55;;;;;;;124.22;113.20;;;;;;;;;;4927732;29;20195;-64
2023/05/10 02:07:21;;;;;;;122.03;111.50;;;;;;;;;;4927977;29;20122;-62
2023/05/10 02:09:47;;;;;;;126.43;115.43;;;;;;;;;;4927795;29;20032;-61
2023/05/10 02:12:13;;;;;;;117.32;106.43;;;;;;;;;;4911663;29;20539;-64
2023/05/10 02:14:39;;;;;;;111.18;102.50;;;;;;;;;;4927352;29;20126;-62
2023/05/10 02:17:05;;;;;;;113.90;104.05;;;;;;;;;;4945510;28;20114;-62
2023/05/10 02:19:32;;;;;;;108.63;99.70;;;;;;;;;;4964532;28;20077;-63
2023/05/10 02:21:58;;;;;;;107.60;98.75;;;;;;;;;;4965668;28;20058;-62
2023/05/10 02:24:24;;;;;;;112.15;102.78;;;;;;;;;;4966006;28;20022;-63
2023/05/10 02:26:51;;;;;;;120.40;110.00;;;;;;;;;;5007832;28;20029;-61
2023/05/10 02:29:17;;;;;;;118.30;108.85;;;;;;;;;;5027440;28;20413;-64
2023/05/10 02:31:43;;;;;;;111.10;101.53;;;;;;;;;;5027354;28;20894;-64
2023/05/10 02:34:10;;;;;;;118.32;107.72;;;;;;;;;;5026962;28;20498;-62
2023/05/10 02:36:35;;;;;;;112.03;102.32;;;;;;;;;;4991379;28;20044;-64
2023/05/10 02:39:01;;;;;;;121.45;110.50;;;;;;;;;;5027092;28;20025;-63
2023/05/10 02:41:27;;;;;;;113.90;104.03;;;;;;;;;;5026896;28;20055;-63
2023/05/10 02:43:55;;;;;;;103.32;94.68;;;;;;;;;;5025960;28;20156;-62
2023/05/10 02:46:21;;;;;;;118.50;107.45;;;;;;;;;;5027123;28;20025;-62
2023/05/10 02:48:46;;;;;;;122.20;110.70;;;;;;;;;;5010675;28;20494;-64
2023/05/10 02:51:12;;;;;;;119.32;108.47;;;;;;;;;;5047222;28;20033;-63
2023/05/10 02:53:40;;;;;;;129.75;116.22;;;;;;;;;;5046913;28;20127;-61
2023/05/10 02:56:12;;;;;;;129.25;116.03;;;;;;;;;;5047220;28;20021;-63
2023/05/10 02:58:37;;;;;;;129.88;116.35;;;;;;;;;;5048782;28;20271;-65
2023/05/10 03:01:02;;;;;;;133.95;118.93;;;;;;;;;;5046759;28;20328;-59
2023/05/10 03:03:27;;;;;;;130.23;116.63;;;;;;;;;;5046862;28;20040;-64
2023/05/10 03:05:55;;;;;;;124.15;111.72;;;;;;;;;;5046875;28;20068;-63
2023/05/10 03:08:21;;;;;;;127.85;114.57;;;;;;;;;;5029015;28;20466;-62
2023/05/10 03:11:03;;;;;;;125.25;112.13;;;;;;;;;;5027118;28;20108;-63
2023/05/10 03:13:46;;;;;;;109.85;98.80;;;;;;;;;;5046649;28;20025;-64
2023/05/10 03:16:14;;;;;;;121.18;108.47;;;;;;;;;;5046951;28;20025;-63
2023/05/10 03:18:54;;;;;;;116.85;103.35;;;;;;;;;;5046530;28;20104;-61
2023/05/10 03:21:19;;;;;;;;;;;;;;;;;;5047035;28;20044;-63
2023/05/10 03:23:51;;;;;;;132.33;104.87;;;;;;;;;;5046517;28;20393;-63
2023/05/10 03:26:26;;;;;;;138.73;109.15;;;;;;;;;;5046460;28;20027;-60
2023/05/10 03:28:52;;;;;;;139.40;115.38;;;;;;;;;;5046057;28;20025;-63
2023/05/10 03:31:17;;;;;;;147.18;120.32;;;;;;;;;;5046711;28;20028;-63
2023/05/10 03:33:47;;;;;;;143.63;116.65;;;;;;;;;;5046050;28;20313;-64
2023/05/10 03:36:12;;;;;;;;;;;;;;;;;;5028211;28;20394;-61
2023/05/10 03:38:37;;;;;;;130.13;104.55;;;;;;;;;;5045717;28;20286;-61
2023/05/10 03:41:02;;;;;;;114.60;102.05;;;;;;;;;;5045955;28;20371;-62
2023/05/10 03:43:28;;;;;;;123.75;109.15;;;;;;;;;;5045728;28;20068;-63
2023/05/10 03:45:53;;;;;;;123.88;109.32;;;;;;;;;;5045927;28;20460;-63
2023/05/10 03:48:18;;;;;;;127.78;110.20;;;;;;;;;;5045958;28;20303;-59
2023/05/10 03:50:44;;;;;;;112.70;100.88;;;;;;;;;;5046099;28;20043;-63
2023/05/10 03:53:09;;;;;;;121.50;108.60;;;;;;;;;;4993605;28;20044;-61
2023/05/10 03:55:36;;;;;;;117.50;105.38;;;;;;;;;;5045504;28;20048;-62
2023/05/10 03:58:01;;;;;;;119.53;106.93;;;;;;;;;;5047605;28;20020;-60
2023/05/10 04:00:26;;;;;;;112.93;101.90;;;;;;;;;;5045862;28;20040;-59
2023/05/10 04:02:52;;;;;;;120.18;107.90;;;;;;;;;;5045588;28;20032;-62
2023/05/10 04:05:17;;;;;;;127.90;114.68;;;;;;;;;;5045244;28;20036;-63
2023/05/10 04:07:44;;;;;;;128.95;116.22;;;;;;;;;;5045342;28;20029;-63
2023/05/10 04:10:09;;;;;;;116.15;105.28;;;;;;;;;;5045669;28;20017;-63
2023/05/10 04:12:34;;;;;;;133.18;120.90;;;;;;;;;;5045853;28;20429;-62
2023/05/10 04:15:00;;;;;;;116.88;107.03;;;;;;;;;;5045393;28;20371;-63
2023/05/10 04:17:25;;;;;;;126.72;116.15;;;;;;;;;;5045078;28;20564;-58
2023/05/10 04:19:52;;;;;;;129.68;119.00;;;;;;;;;;5045707;28;20028;-62
2023/05/10 04:22:18;;;;;;;129.15;118.75;;;;;;;;;;5045319;28;20120;-64
2023/05/10 04:24:43;;;;;;;133.88;123.13;;;;;;;;;;5045080;28;20111;-63
2023/05/10 04:27:08;;;;;;;99.22;92.07;;;;;;;;;;5045058;28;20568;-63
2023/05/10 04:29:33;;;;;;;121.80;112.35;;;;;;;;;;5044889;28;20340;-63
2023/05/10 04:31:59;;;;;;;112.63;104.60;;;;;;;;;;5044746;28;20413;-64
2023/05/10 04:34:25;;;;;;;123.63;114.72;;;;;;;;;;4992756;28;20041;-63
2023/05/10 04:36:50;;;;;;;139.63;129.35;;;;;;;;;;5026426;28;20549;-62
2023/05/10 04:39:15;;;;;;;106.95;99.45;;;;;;;;;;5044838;28;20104;-63
2023/05/10 04:41:41;;;;;;;134.50;124.50;;;;;;;;;;5044877;28;20478;-62
2023/05/10 04:44:06;;;;;;;147.57;136.50;;;;;;;;;;5045108;28;20065;-60
2023/05/10 04:46:31;;;;;;;106.97;99.18;;;;;;;;;;5044844;28;20111;-63
2023/05/10 04:48:56;;;;;;;119.18;110.95;;;;;;;;;;5044473;28;20881;-62
2023/05/10 04:51:22;;;;;;;116.20;108.10;;;;;;;;;;5044741;28;20032;-63
2023/05/10 04:53:47;;;;;;;129.05;119.35;;;;;;;;;;4992948;28;20143;-60
2023/05/10 04:56:12;;;;;;;119.70;111.18;;;;;;;;;;5046710;28;20027;-62
2023/05/10 04:58:38;;;;;;;126.30;117.75;;;;;;;;;;5044846;28;20025;-63
2023/05/10 05:01:07;;;;;;;128.05;118.82;;;;;;;;;;5045390;28;20025;-62
2023/05/10 05:03:33;;;;;;;;;;;;;;;;;;5046367;28;20083;-63
2023/05/10 05:05:58;;;;;;;77.65;71.63;;;;;;;;;;5044748;28;19908;-60
2023/05/10 05:08:23;;;;;;;60.33;54.60;;;;;;;;;;5045200;28;20075;-61
2023/05/10 05:10:50;;;;;;;75.30;69.63;;;;;;;;;;5027350;28;20489;-61
2023/05/10 05:13:15;;;;;;;62.13;57.63;;;;;;;;;;5045210;28;20017;-63
2023/05/10 05:15:40;;;;;;;84.25;77.18;;;;;;;;;;5044725;28;20017;-61
2023/05/10 05:18:05;;;;;;;53.50;49.60;;;;;;;;;;5044744;28;20040;-62
2023/05/10 05:20:34;;;;;;;73.60;67.47;;;;;;;;;;5044683;28;20028;-63
2023/05/10 05:22:59;;;;;;;91.53;84.67;;;;;;;;;;5044314;28;20021;-60
2023/05/10 05:25:25;;;;;;;70.57;65.07;;;;;;;;;;5044242;28;20056;-60
2023/05/10 05:27:50;;;;;;;97.97;90.95;;;;;;;;;;5044306;28;20036;-63
2023/05/10 05:30:15;;;;;;;75.07;69.30;;;;;;;;;;5043702;28;20608;-61
2023/05/10 05:32:40;;;;;;;52.85;48.22;;;;;;;;;;5043991;28;20025;-60
2023/05/10 11:05:35;;;;;;;841.83;650.22;;;;;;;;;;5127786;27;20362;-60
2023/05/10 11:08:06;;;;;;;840.95;604.92;;;;;;;;;;5128388;27;20040;-59
2023/05/10 11:10:32;;;;;;;841.03;595.92;;;;;;;;;;5128508;27;20024;-61
2023/05/10 11:13:01;;;;;;;850.15;600.90;;;;;;;;;;5128007;27;20035;-59
2023/05/10 11:15:33;;;;;;;855.58;611.17;;;;;;;;;;5127779;27;20038;-58
2023/05/10 11:17:58;;;;;;;847.15;591.88;;;;;;;;;;5127545;27;20027;-60
2023/05/10 11:20:32;;;;;;;827.65;557.13;;;;;;;;;;5127794;27;20412;-59
2023/05/10 11:22:58;;;;;;;832.90;575.42;;;;;;;;;;5127693;27;20654;-60
2023/05/10 11:25:26;;;;;;;842.38;597.65;;;;;;;;;;5127587;27;20030;-57
2023/05/10 11:27:52;;;;;;;849.10;595.97;;;;;;;;;;5127603;27;20023;-60
2023/05/10 11:30:17;;;;;;;848.92;603.55;;;;;;;;;;5127417;27;20023;-60
2023/05/10 11:32:43;;;;;;;843.65;588.00;;;;;;;;;;5127685;27;20028;-59
2023/05/10 11:35:09;;;;;;;838.55;572.78;;;;;;;;;;5127505;27;20027;-59
2023/05/10 11:37:34;;;;;;;839.45;579.20;;;;;;;;;;5127573;27;20027;-60
2023/05/10 11:40:00;;;;;;;840.78;580.55;;;;;;;;;;5127289;27;20054;-60
2023/05/10 11:42:25;;;;;;;840.85;581.22;;;;;;;;;;5127123;27;20020;-57
2023/05/10 11:44:50;;;;;;;841.80;583.42;;;;;;;;;;5127247;27;20035;-57
2023/05/10 11:47:16;;;;;;;832.00;578.63;;;;;;;;;;5127104;27;20015;-59
2023/05/10 11:49:44;;;;;;;831.28;576.40;;;;;;;;;;5126892;27;20387;-60
2023/05/10 11:52:11;;;;;;;836.20;569.40;;;;;;;;;;5126980;27;20529;-59
2023/05/10 11:54:36;;;;;;;828.10;567.75;;;;;;;;;;5125480;27;20036;-60
2023/05/10 11:57:02;;;;;;;837.55;565.88;;;;;;;;;;5127154;27;20028;-60
2023/05/10 11:59:27;;;;;;;815.95;531.20;;;;;;;;;;5126879;27;20026;-59
2023/05/10 12:01:53;;;;;;;815.50;526.40;;;;;;;;;;5126981;27;20519;-59
2023/05/10 12:04:18;;;;;;;819.72;528.22;;;;;;;;;;5125575;27;20089;-58
2023/05/10 12:06:44;;;;;;;829.00;561.97;;;;;;;;;;5112906;28;20513;-60
2023/05/10 12:09:10;;;;;;;826.33;534.28;;;;;;;;;;5093650;28;20649;-60
2023/05/10 12:11:40;;;;;;;825.53;536.70;;;;;;;;;;5109913;28;20039;-56
2023/05/10 12:14:05;;;;;;;823.13;535.80;;;;;;;;;;5110233;28;20384;-59
2023/05/10 12:16:31;;;;;;;830.03;553.72;;;;;;;;;;5110114;28;20042;-59
2023/05/10 12:18:57;;;;;;;825.13;528.40;;;;;;;;;;5110142;28;20027;-54
2023/05/10 12:21:22;;;;;;;825.38;538.08;;;;;;;;;;5092928;28;20035;-60
2023/05/10 12:23:49;;;;;;;808.92;486.15;;;;;;;;;;5075969;28;20040;-60
2023/05/10 12:26:15;;;;;;;789.70;471.33;;;;;;;;;;5109999;28;20043;-60
2023/05/10 12:28:40;;;;;;;795.85;487.83;;;;;;;;;;5110176;28;20032;-57
2023/05/10 12:31:06;;;;;;;805.67;508.02;;;;;;;;;;5109702;28;20111;-60
2023/05/10 12:33:42;;;;;;;808.20;521.90;;;;;;;;;;5109680;28;20044;-59
2023/05/10 12:36:08;;;;;;;809.95;512.67;;;;;;;;;;5109685;28;20527;-59
2023/05/10 12:38:34;;;;;;;813.83;537.17;;;;;;;;;;5109360;28;20112;-56
2023/05/10 12:41:00;;;;;;;783.72;475.83;;;;;;;;;;5109653;28;20452;-59
2023/05/10 12:43:25;;;;;;;777.95;458.60;;;;;;;;;;5111755;28;20043;-59
2023/05/10 12:45:50;;;;;;;784.28;469.80;;;;;;;;;;5112414;28;20077;-59
2023/05/10 12:48:16;;;;;;;774.15;452.00;;;;;;;;;;5127016;27;20035;-60
2023/05/10 12:50:41;;;;;;;782.25;462.27;;;;;;;;;;5112365;28;20019;-57
2023/05/10 12:53:07;;;;;;;785.35;465.88;;;;;;;;;;5111927;28;20031;-59
2023/05/10 12:55:32;;;;;;;787.38;474.50;;;;;;;;;;5126345;27;20038;-59
2023/05/10 12:57:57;;;;;;;777.45;455.88;;;;;;;;;;5112158;28;20084;-60
2023/05/10 13:00:22;;;;;;;779.35;449.05;;;;;;;;;;5112218;27;20026;-60
2023/05/10 13:02:48;;;;;;;777.90;447.73;;;;;;;;;;5112174;28;20039;-59
2023/05/10 13:05:13;;;;;;;775.03;436.88;;;;;;;;;;5111480;28;20044;-58
2023/05/10 13:07:38;;;;;;;773.30;434.55;;;;;;;;;;5111737;28;20092;-60
2023/05/10 13:10:05;;;;;;;774.85;438.90;;;;;;;;;;5111816;28;20137;-60
2023/05/10 13:12:30;;;;;;;783.70;452.55;;;;;;;;;;5111449;28;20079;-57
2023/05/10 13:14:55;;;;;;;779.85;461.80;;;;;;;;;;5111440;28;20126;-59
2023/05/10 13:17:21;;;;;;;783.13;475.00;;;;;;;;;;5110595;28;20015;-60
2023/05/10 13:19:46;;;;;;;785.75;474.60;;;;;;;;;;5111644;28;20605;-59
2023/05/10 13:22:11;;;;;;;787.63;473.48;;;;;;;;;;5111604;28;20034;-58
2023/05/10 13:24:36;;;;;;;781.97;464.88;;;;;;;;;;5111525;28;20474;-60
2023/05/10 13:27:02;;;;;;;778.85;454.05;;;;;;;;;;5111428;28;20019;-60
2023/05/10 13:29:27;;;;;;;775.50;448.90;;;;;;;;;;5111578;28;20719;-58
2023/05/10 13:31:52;;;;;;;778.58;436.58;;;;;;;;;;5111586;28;20024;-60
2023/05/10 13:34:20;;;;;;;775.58;430.40;;;;;;;;;;5111266;28;20388;-60
2023/05/10 13:36:45;;;;;;;775.17;432.83;;;;;;;;;;5108840;28;20115;-58
2023/05/10 13:39:11;;;;;;;771.80;429.65;;;;;;;;;;5111241;28;20681;-59
2023/05/10 13:41:36;;;;;;;768.55;420.75;;;;;;;;;;5111118;28;20024;-58
2023/05/10 13:44:02;;;;;;;766.60;413.92;;;;;;;;;;5110872;28;20024;-60
2023/05/10 13:46:27;;;;;;;763.92;408.08;;;;;;;;;;5111335;28;20039;-57
2023/05/10 13:48:52;;;;;;;766.30;410.15;;;;;;;;;;5111131;28;20051;-59
2023/05/10 13:51:18;;;;;;;765.72;406.67;;;;;;;;;;5111060;28;20059;-59
2023/05/10 13:53:43;;;;;;;766.42;406.17;;;;;;;;;;5110832;28;20059;-60
2023/05/10 13:56:08;;;;;;;772.05;412.45;;;;;;;;;;5110675;28;20016;-59
2023/05/10 13:58:35;;;;;;;771.13;421.10;;;;;;;;;;5111162;28;20023;-60
2023/05/10 14:01:00;;;;;;;767.35;406.02;;;;;;;;;;5110886;28;20368;-60
2023/05/10 14:03:26;;;;;;;770.80;417.90;;;;;;;;;;5110902;28;20061;-59
2023/05/10 14:05:51;;;;;;;769.92;419.30;;;;;;;;;;5110815;28;20011;-56
2023/05/10 14:08:17;;;;;;;769.88;408.60;;;;;;;;;;5110921;27;20024;-59
2023/05/10 14:10:42;;;;;;;761.45;401.45;;;;;;;;;;5111270;27;20110;-58
2023/05/10 14:13:08;;;;;;;765.20;403.00;;;;;;;;;;5111143;28;20488;-59
2023/05/10 14:15:33;;;;;;;764.78;404.02;;;;;;;;;;5111007;28;20109;-56
2023/05/10 14:17:58;;;;;;;767.35;404.05;;;;;;;;;;5110942;28;20084;-57
2023/05/10 14:20:24;;;;;;;762.92;401.55;;;;;;;;;;5110819;28;20031;-60
2023/05/10 14:22:49;;;;;;;763.38;407.38;;;;;;;;;;5110731;28;20061;-58
2023/05/10 14:25:14;;;;;;;762.28;401.23;;;;;;;;;;5110503;28;20026;-60
2023/05/10 14:27:40;;;;;;;764.88;415.10;;;;;;;;;;5110516;28;20116;-59
2023/05/10 14:30:05;;;;;;;767.60;420.75;;;;;;;;;;5110464;28;20022;-57
2023/05/10 14:32:31;;;;;;;751.42;385.02;;;;;;;;;;5110545;28;20031;-60
2023/05/10 14:34:57;;;;;;;767.10;409.65;;;;;;;;;;5110685;28;20080;-59
2023/05/10 14:37:22;;;;;;;623.45;435.65;;;;;;;;;;5107740;28;20114;-55
2023/05/10 14:39:47;;;;;;;59.65;55.90;;;;;;;;;;5110386;28;20050;-59
2023/05/10 14:42:12;;;;;;;79.53;74.30;;;;;;;;;;5110516;28;20035;-59
2023/05/10 14:44:38;;;;;;;254.03;238.93;;;;;;;;;;5110621;28;20104;-60
2023/05/10 14:47:03;;;;;;;502.90;408.00;;;;;;;;;;5110438;28;20244;-57
2023/05/10 14:49:29;;;;;;;286.45;267.67;;;;;;;;;;5110269;28;20708;-59
2023/05/10 14:51:54;;;;;;;529.50;448.55;;;;;;;;;;5124917;28;20032;-59
2023/05/10 14:54:19;;;;;;;767.25;508.63;;;;;;;;;;5110142;28;20125;-60
2023/05/10 14:56:44;;;;;;;536.80;394.48;;;;;;;;;;5110181;28;20031;-59
2023/05/10 14:59:10;;;;;;;59.72;55.72;;;;;;;;;;5110489;28;20444;-60
2023/05/10 15:01:37;;;;;;;507.33;448.17;;;;;;;;;;5110308;28;20046;-56
2023/05/10 15:04:02;;;;;;;341.58;307.40;;;;;;;;;;5110210;28;20643;-59
2023/05/10 15:06:31;;;;;;;743.35;487.45;;;;;;;;;;5110121;28;20016;-61
2023/05/10 15:08:57;;;;;;;498.73;440.52;;;;;;;;;;5110044;28;20077;-60
2023/05/10 15:11:22;;;;;;;149.02;140.35;;;;;;;;;;5107428;28;20032;-59
2023/05/10 15:13:47;;;;;;;340.93;308.63;;;;;;;;;;5110083;28;20444;-58
2023/05/10 15:16:12;;;;;;;166.20;156.55;;;;;;;;;;5110336;28;20244;-59
2023/05/10 15:18:38;;;;;;;548.85;465.70;;;;;;;;;;5110146;28;20407;-60
2023/05/10 15:21:03;;;;;;;605.73;465.00;;;;;;;;;;5108924;28;20024;-59
2023/05/10 15:23:29;;;;;;;792.17;490.17;;;;;;;;;;5109930;28;20631;-59
2023/05/10 15:25:55;;;;;;;699.33;480.27;;;;;;;;;;5109624;28;20047;-59
2023/05/10 15:28:20;;;;;;;278.92;250.98;;;;;;;;;;5109956;28;20078;-57
2023/05/10 15:30:46;;;;;;;645.03;480.98;;;;;;;;;;5110037;28;20028;-61
2023/05/10 15:33:11;;;;;;;717.63;489.73;;;;;;;;;;5109915;28;20081;-59
2023/05/10 15:35:38;;;;;;;754.92;483.63;;;;;;;;;;5109818;28;20020;-59
2023/05/10 15:38:03;;;;;;;660.92;476.88;;;;;;;;;;5109925;28;20034;-57
2023/05/10 15:40:28;;;;;;;779.50;455.05;;;;;;;;;;5111246;28;20551;-57
2023/05/10 15:42:54;;;;;;;789.83;467.80;;;;;;;;;;5113639;28;20507;-59
2023/05/10 15:45:19;;;;;;;785.75;460.48;;;;;;;;;;5113793;28;20012;-59
2023/05/10 15:47:45;;;;;;;742.17;442.50;;;;;;;;;;5113609;28;20038;-59
2023/05/10 15:50:11;;;;;;;511.80;434.10;;;;;;;;;;5113701;28;20023;-57
2023/05/10 15:52:36;;;;;;;703.33;448.73;;;;;;;;;;5113686;28;20051;-58
2023/05/10 15:55:02;;;;;;;651.28;456.60;;;;;;;;;;5113093;28;20135;-59
2023/05/10 15:57:28;;;;;;;400.65;363.00;;;;;;;;;;5110348;28;20080;-60
2023/05/10 15:59:53;;;;;;;543.78;452.92;;;;;;;;;;5110715;28;20118;-58
2023/05/10 16:02:18;;;;;;;157.33;148.13;;;;;;;;;;5113558;27;20114;-60
2023/05/10 16:04:44;;;;;;;425.58;382.52;;;;;;;;;;5113273;28;20756;-60
2023/05/10 16:07:09;;;;;;;75.65;71.20;;;;;;;;;;5127984;27;20035;-59
2023/05/10 16:09:34;;;;;;;454.40;410.90;;;;;;;;;;5113227;28;20456;-60
2023/05/10 16:12:01;;;;;;;207.45;194.88;;;;;;;;;;5113109;28;20470;-59
2023/05/10 16:14:26;;;;;;;613.47;472.23;;;;;;;;;;5113089;28;20026;-60
2023/05/10 16:16:52;;;;;;;484.70;434.25;;;;;;;;;;5113019;27;20019;-60
2023/05/10 16:19:17;;;;;;;307.00;281.83;;;;;;;;;;5112539;28;20453;-58
2023/05/10 16:21:42;;;;;;;454.52;394.73;;;;;;;;;;5112328;28;20505;-59
2023/05/10 16:24:08;;;;;;;468.13;423.13;;;;;;;;;;5112374;28;20455;-59
2023/05/10 16:26:39;;;;;;;581.08;484.83;;;;;;;;;;5112679;28;20046;-59
2023/05/10 16:29:04;;;;;;;594.85;487.80;;;;;;;;;;5112345;28;20107;-60
2023/05/10 16:31:30;;;;;;;570.70;483.45;;;;;;;;;;5112450;28;20106;-60
2023/05/10 16:33:55;;;;;;;586.67;478.95;;;;;;;;;;5113020;28;20046;-58
2023/05/10 16:36:20;;;;;;;586.33;473.13;;;;;;;;;;5112747;28;20724;-57
2023/05/10 16:38:45;;;;;;;579.75;470.33;;;;;;;;;;5112607;28;20024;-58
2023/05/10 16:41:11;;;;;;;582.67;460.10;;;;;;;;;;5112756;28;20019;-59
2023/05/10 16:43:36;;;;;;;588.67;448.60;;;;;;;;;;5112752;28;20448;-59
2023/05/10 16:46:02;;;;;;;578.25;449.95;;;;;;;;;;5112645;28;20463;-59
2023/05/10 16:48:27;;;;;;;598.67;448.75;;;;;;;;;;5112408;28;20016;-58
2023/05/10 16:50:52;;;;;;;585.35;454.33;;;;;;;;;;5111955;28;20051;-59
2023/05/10 16:53:18;;;;;;;599.80;451.75;;;;;;;;;;5112079;28;20449;-59
2023/05/10 16:55:43;;;;;;;624.53;452.20;;;;;;;;;;5112106;28;20177;-57
2023/05/10 16:58:08;;;;;;;664.60;465.20;;;;;;;;;;5112195;28;20022;-59
2023/05/10 17:00:34;;;;;;;616.72;442.45;;;;;;;;;;5111562;28;20019;-59
2023/05/10 17:02:59;;;;;;;636.17;419.58;;;;;;;;;;5110838;28;20111;-59
2023/05/10 17:05:25;;;;;;;621.60;421.83;;;;;;;;;;5112934;28;20051;-60
2023/05/10 17:07:50;;;;;;;674.15;418.92;;;;;;;;;;5112486;28;20388;-60
2023/05/10 17:10:15;;;;;;;718.83;409.00;;;;;;;;;;5112759;28;20020;-60
2023/05/10 17:12:41;;;;;;;720.05;393.25;;;;;;;;;;5112830;28;20059;-60
2023/05/10 17:15:07;;;;;;;591.42;392.13;;;;;;;;;;5112440;28;20111;-60
2023/05/10 17:17:32;;;;;;;652.00;408.83;;;;;;;;;;5111919;28;20024;-59
2023/05/10 17:19:58;;;;;;;464.02;348.23;;;;;;;;;;5112644;28;20058;-59
2023/05/10 17:22:23;;;;;;;453.02;346.17;;;;;;;;;;5112728;28;20015;-58
2023/05/10 17:24:48;;;;;;;662.78;414.35;;;;;;;;;;5112185;28;20550;-60
2023/05/10 17:27:14;;;;;;;648.80;397.05;;;;;;;;;;5112086;28;20015;-60
2023/05/10 17:29:39;;;;;;;675.83;413.35;;;;;;;;;;5111979;28;20016;-58
2023/05/10 17:32:04;;;;;;;664.20;407.58;;;;;;;;;;5112144;28;20099;-60
2023/05/10 17:34:30;;;;;;;640.00;398.17;;;;;;;;;;5112217;28;20510;-60
2023/05/10 17:36:56;;;;;;;697.30;383.30;;;;;;;;;;5111987;28;20015;-58
2023/05/10 17:39:21;;;;;;;383.50;344.27;;;;;;;;;;5110835;28;20380;-59
2023/05/10 17:41:46;;;;;;;243.90;229.52;;;;;;;;;;5111038;28;20019;-60
2023/05/10 17:44:12;;;;;;;288.30;269.17;;;;;;;;;;5109710;28;20027;-60
2023/05/10 17:46:38;;;;;;;696.42;410.38;;;;;;;;;;5109789;28;20437;-59
2023/05/10 17:49:03;;;;;;;693.83;405.13;;;;;;;;;;5111215;28;20091;-59
2023/05/10 17:51:28;;;;;;;666.65;392.52;;;;;;;;;;5111039;28;20422;-60
2023/05/10 17:53:54;;;;;;;662.40;389.17;;;;;;;;;;5110968;28;20032;-60
2023/05/10 17:56:21;;;;;;;696.28;385.23;;;;;;;;;;5108466;28;20028;-59
2023/05/10 17:58:46;;;;;;;54.92;51.47;;;;;;;;;;5110810;28;20299;-58
2023/05/10 18:01:11;;;;;;;64.50;60.53;;;;;;;;;;5110765;28;20136;-60
2023/05/10 18:03:37;;;;;;;37.43;35.03;;;;;;;;;;5110001;28;20040;-58
2023/05/10 18:06:03;;;;;;;55.03;51.72;;;;;;;;;;5110613;28;20244;-59
2023/05/10 18:08:29;;;;;;;62.30;58.22;;;;;;;;;;5109899;28;20019;-59
2023/05/10 18:10:54;;;;;;;63.28;59.15;;;;;;;;;;5111576;28;20510;-58
2023/05/10 18:13:20;;;;;;;84.82;78.93;;;;;;;;;;5110894;28;20028;-62
2023/05/10 18:15:45;;;;;;;90.75;84.97;;;;;;;;;;5111274;28;20075;-58
2023/05/10 18:18:10;;;;;;;62.38;57.95;;;;;;;;;;5110993;28;20024;-57
2023/05/10 18:20:36;;;;;;;111.95;105.47;;;;;;;;;;5110836;28;20115;-59
2023/05/10 18:23:01;;;;;;;121.70;114.25;;;;;;;;;;5125073;27;20063;-62
2023/05/10 18:25:26;;;;;;;340.27;309.73;;;;;;;;;;5110469;28;20659;-59
2023/05/10 18:27:52;;;;;;;664.38;377.10;;;;;;;;;;5110325;28;20024;-59
2023/05/10 18:30:17;;;;;;;703.42;355.38;;;;;;;;;;5124667;27;20027;-58
2023/05/10 18:32:43;;;;;;;684.38;340.92;;;;;;;;;;5110173;28;20114;-59
2023/05/10 18:35:08;;;;;;;705.20;359.17;;;;;;;;;;5127354;27;20104;-58
2023/05/10 18:37:34;;;;;;;700.85;361.70;;;;;;;;;;5127758;27;20077;-56
2023/05/10 18:39:59;;;;;;;651.15;360.70;;;;;;;;;;5127512;27;20145;-58
2023/05/10 18:42:25;;;;;;;687.58;344.58;;;;;;;;;;5127687;27;20030;-58
2023/05/10 18:44:51;;;;;;;687.38;341.42;;;;;;;;;;5127665;27;20096;-58
2023/05/10 18:47:16;;;;;;;686.38;337.13;;;;;;;;;;5127526;27;20463;-57
2023/05/10 18:49:44;;;;;;;680.20;346.52;;;;;;;;;;5127580;27;20102;-59
2023/05/10 18:52:09;;;;;;;689.25;342.35;;;;;;;;;;5127518;27;20085;-59
2023/05/10 18:54:34;;;;;;;713.83;326.95;;;;;;;;;;5127280;27;20165;-58
2023/05/10 18:57:00;;;;;;;601.53;319.65;;;;;;;;;;5127324;27;20058;-58
2023/05/10 18:59:26;;;;;;;592.15;332.00;;;;;;;;;;5127424;28;20522;-55
2023/05/10 19:01:52;;;;;;;589.40;307.02;;;;;;;;;;5127189;27;20032;-59
2023/05/10 19:04:17;;;;;;;567.00;295.80;;;;;;;;;;5127049;28;20043;-58
2023/05/10 19:06:42;;;;;;;304.88;259.05;;;;;;;;;;5127205;27;20039;-59
2023/05/10 19:09:08;;;;;;;689.17;315.85;;;;;;;;;;5127310;28;20027;-59
2023/05/10 19:11:34;;;;;;;126.78;118.18;;;;;;;;;;5125978;27;20024;-58
2023/05/10 19:14:00;;;;;;;424.23;255.93;;;;;;;;;;5109499;28;20033;-59
2023/05/10 19:16:26;;;;;;;309.10;270.33;;;;;;;;;;5076279;28;20023;-59
2023/05/10 19:18:52;;;;;;;498.13;305.38;;;;;;;;;;5113665;28;20019;-59
2023/05/10 19:21:17;;;;;;;429.95;295.52;;;;;;;;;;5113343;28;20428;-55